Terminal Aerodrome Forecast
Issued by NWS Sioux Falls, SD

Home | Current Version | Previous Version | Graphics & Text | Print | Product List | Glossary On
Versions: 1 2 3 4 5 6 7 8 9 10 11 12 13 14 15 16 17 18 19
544
FTUS43 KFSD 112320
TAFHON
TAF
KHON 112320Z 1200/1224 09006KT 5SM -SN BR SCT010 BKN035
     FM120200 35005KT P6SM OVC015
     FM121200 35012KT P6SM BKN035
     FM121500 35012G18KT P6SM SCT200=

USA.gov is the U.S. government's official web portal to all federal, state and local government web resources and services.